sensor_id;sensor_type;location;lat;lon;timestamp;temperature;humidity
43987;DHT22;29650;47.378;8.300;2023-04-15T00:02:15;5.30;76.90
43987;DHT22;29650;47.378;8.300;2023-04-15T00:04:43;5.40;77.10
43987;DHT22;29650;47.378;8.300;2023-04-15T00:07:12;5.50;76.40
43987;DHT22;29650;47.378;8.300;2023-04-15T00:09:39;5.40;77.40
43987;DHT22;29650;47.378;8.300;2023-04-15T00:12:06;5.20;80.20
43987;DHT22;29650;47.378;8.300;2023-04-15T00:14:34;5.00;82.50
43987;DHT22;29650;47.378;8.300;2023-04-15T00:17:01;5.00;83.00
43987;DHT22;29650;47.378;8.300;2023-04-15T00:19:28;4.90;83.20
43987;DHT22;29650;47.378;8.300;2023-04-15T00:21:55;5.10;83.40
43987;DHT22;29650;47.378;8.300;2023-04-15T00:24:24;5.30;83.40
43987;DHT22;29650;47.378;8.300;2023-04-15T00:26:51;5.30;83.70
43987;DHT22;29650;47.378;8.300;2023-04-15T00:29:18;5.30;84.20
43987;DHT22;29650;47.378;8.300;2023-04-15T00:31:45;5.30;84.60
43987;DHT22;29650;47.378;8.300;2023-04-15T00:34:12;5.90;84.50
43987;DHT22;29650;47.378;8.300;2023-04-15T00:36:39;5.40;83.90
43987;DHT22;29650;47.378;8.300;2023-04-15T00:39:06;5.30;85.00
43987;DHT22;29650;47.378;8.300;2023-04-15T00:41:34;5.40;86.20
43987;DHT22;29650;47.378;8.300;2023-04-15T00:44:04;5.30;86.80
43987;DHT22;29650;47.378;8.300;2023-04-15T00:46:34;5.30;87.20
43987;DHT22;29650;47.378;8.300;2023-04-15T00:49:02;5.40;88.30
43987;DHT22;29650;47.378;8.300;2023-04-15T00:51:29;5.30;89.90
43987;DHT22;29650;47.378;8.300;2023-04-15T00:53:58;5.20;90.80
43987;DHT22;29650;47.378;8.300;2023-04-15T00:56:26;5.30;91.60
43987;DHT22;29650;47.378;8.300;2023-04-15T00:58:55;5.10;92.90
43987;DHT22;29650;47.378;8.300;2023-04-15T01:01:23;5.10;95.40
43987;DHT22;29650;47.378;8.300;2023-04-15T01:03:51;5.00;96.40
43987;DHT22;29650;47.378;8.300;2023-04-15T01:06:18;5.00;94.70
43987;DHT22;29650;47.378;8.300;2023-04-15T01:08:46;5.00;92.90
43987;DHT22;29650;47.378;8.300;2023-04-15T01:11:13;5.10;91.20
43987;DHT22;29650;47.378;8.300;2023-04-15T01:13:40;5.30;90.10
43987;DHT22;29650;47.378;8.300;2023-04-15T01:16:09;5.40;90.20
43987;DHT22;29650;47.378;8.300;2023-04-15T01:18:37;5.40;89.70
43987;DHT22;29650;47.378;8.300;2023-04-15T01:21:05;5.50;89.70
43987;DHT22;29650;47.378;8.300;2023-04-15T01:23:34;5.50;88.10
43987;DHT22;29650;47.378;8.300;2023-04-15T01:26:05;5.50;87.00
43987;DHT22;29650;47.378;8.300;2023-04-15T01:28:33;5.70;87.40
43987;DHT22;29650;47.378;8.300;2023-04-15T01:31:07;5.70;87.80
43987;DHT22;29650;47.378;8.300;2023-04-15T01:33:34;5.80;88.70
43987;DHT22;29650;47.378;8.300;2023-04-15T01:36:02;5.80;88.50
43987;DHT22;29650;47.378;8.300;2023-04-15T01:38:30;5.70;88.80
43987;DHT22;29650;47.378;8.300;2023-04-15T01:40:57;5.70;89.10
43987;DHT22;29650;47.378;8.300;2023-04-15T01:43:26;5.70;90.20
43987;DHT22;29650;47.378;8.300;2023-04-15T01:45:53;5.70;90.50
43987;DHT22;29650;47.378;8.300;2023-04-15T01:48:21;5.60;90.50
43987;DHT22;29650;47.378;8.300;2023-04-15T01:50:48;5.50;90.70
43987;DHT22;29650;47.378;8.300;2023-04-15T01:53:15;5.50;92.00
43987;DHT22;29650;47.378;8.300;2023-04-15T01:55:42;5.50;93.70
43987;DHT22;29650;47.378;8.300;2023-04-15T01:58:09;5.40;95.30
43987;DHT22;29650;47.378;8.300;2023-04-15T02:00:37;5.40;95.90
43987;DHT22;29650;47.378;8.300;2023-04-15T02:03:04;5.50;96.10
43987;DHT22;29650;47.378;8.300;2023-04-15T02:05:32;5.40;96.30
43987;DHT22;29650;47.378;8.300;2023-04-15T02:07:59;5.40;96.80
43987;DHT22;29650;47.378;8.300;2023-04-15T02:10:26;5.50;96.50
43987;DHT22;29650;47.378;8.300;2023-04-15T02:12:53;5.60;96.70
43987;DHT22;29650;47.378;8.300;2023-04-15T02:15:20;5.70;96.60
43987;DHT22;29650;47.378;8.300;2023-04-15T02:17:48;5.80;96.00
43987;DHT22;29650;47.378;8.300;2023-04-15T02:20:18;5.80;94.40
43987;DHT22;29650;47.378;8.300;2023-04-15T02:22:45;5.80;94.00
43987;DHT22;29650;47.378;8.300;2023-04-15T02:25:13;5.90;94.10
43987;DHT22;29650;47.378;8.300;2023-04-15T02:27:41;5.80;94.50
43987;DHT22;29650;47.378;8.300;2023-04-15T02:30:08;5.80;95.00
43987;DHT22;29650;47.378;8.300;2023-04-15T02:32:36;5.60;96.20
43987;DHT22;29650;47.378;8.300;2023-04-15T02:35:05;5.60;96.90
43987;DHT22;29650;47.378;8.300;2023-04-15T02:37:35;5.60;97.20
43987;DHT22;29650;47.378;8.300;2023-04-15T02:40:07;5.40;97.90
43987;DHT22;29650;47.378;8.300;2023-04-15T02:42:34;5.40;99.10
43987;DHT22;29650;47.378;8.300;2023-04-15T02:45:01;5.30;99.90
43987;DHT22;29650;47.378;8.300;2023-04-15T02:47:28;5.10;99.90
43987;DHT22;29650;47.378;8.300;2023-04-15T02:49:55;5.10;99.90
43987;DHT22;29650;47.378;8.300;2023-04-15T02:52:26;4.90;99.90
43987;DHT22;29650;47.378;8.300;2023-04-15T02:54:53;5.10;99.90
43987;DHT22;29650;47.378;8.300;2023-04-15T02:57:22;5.10;99.90
43987;DHT22;29650;47.378;8.300;2023-04-15T02:59:49;5.30;99.90
43987;DHT22;29650;47.378;8.300;2023-04-15T03:02:16;5.40;99.90
43987;DHT22;29650;47.378;8.300;2023-04-15T03:04:43;5.30;99.90
43987;DHT22;29650;47.378;8.300;2023-04-15T03:07:10;5.10;99.90
43987;DHT22;29650;47.378;8.300;2023-04-15T03:09:39;5.20;99.90
43987;DHT22;29650;47.378;8.300;2023-04-15T03:12:06;5.20;99.90
43987;DHT22;29650;47.378;8.300;2023-04-15T03:14:33;5.30;99.90
43987;DHT22;29650;47.378;8.300;2023-04-15T03:17:00;5.30;99.90
43987;DHT22;29650;47.378;8.300;2023-04-15T03:19:27;5.40;99.90
43987;DHT22;29650;47.378;8.300;2023-04-15T03:21:53;5.60;99.90
43987;DHT22;29650;47.378;8.300;2023-04-15T03:24:20;5.60;99.90
43987;DHT22;29650;47.378;8.300;2023-04-15T03:26:49;5.60;99.90
43987;DHT22;29650;47.378;8.300;2023-04-15T03:29:16;5.60;99.90
43987;DHT22;29650;47.378;8.300;2023-04-15T03:31:42;5.70;99.90
43987;DHT22;29650;47.378;8.300;2023-04-15T03:34:10;5.70;99.70
43987;DHT22;29650;47.378;8.300;2023-04-15T03:36:37;5.80;99.20
43987;DHT22;29650;47.378;8.300;2023-04-15T03:39:04;5.80;99.10
43987;DHT22;29650;47.378;8.300;2023-04-15T03:41:31;5.80;99.90
43987;DHT22;29650;47.378;8.300;2023-04-15T03:43:59;5.70;99.90
43987;DHT22;29650;47.378;8.300;2023-04-15T03:46:26;5.80;99.90
43987;DHT22;29650;47.378;8.300;2023-04-15T03:48:53;5.80;99.90
43987;DHT22;29650;47.378;8.300;2023-04-15T03:51:20;5.80;99.90
43987;DHT22;29650;47.378;8.300;2023-04-15T03:53:47;5.70;99.90
43987;DHT22;29650;47.378;8.300;2023-04-15T03:56:14;5.70;99.90
43987;DHT22;29650;47.378;8.300;2023-04-15T03:58:41;5.70;99.90
43987;DHT22;29650;47.378;8.300;2023-04-15T04:01:10;5.70;99.90
43987;DHT22;29650;47.378;8.300;2023-04-15T04:03:37;5.80;99.90
43987;DHT22;29650;47.378;8.300;2023-04-15T04:06:03;5.90;99.90
43987;DHT22;29650;47.378;8.300;2023-04-15T04:08:30;6.00;99.90
43987;DHT22;29650;47.378;8.300;2023-04-15T04:10:57;5.90;99.90
43987;DHT22;29650;47.378;8.300;2023-04-15T04:13:24;5.90;99.90
43987;DHT22;29650;47.378;8.300;2023-04-15T04:15:51;5.80;99.90
43987;DHT22;29650;47.378;8.300;2023-04-15T04:18:20;5.80;99.90
43987;DHT22;29650;47.378;8.300;2023-04-15T04:20:47;5.80;99.90
43987;DHT22;29650;47.378;8.300;2023-04-15T04:23:14;5.70;99.90
43987;DHT22;29650;47.378;8.300;2023-04-15T04:25:41;5.60;99.90
43987;DHT22;29650;47.378;8.300;2023-04-15T04:28:08;5.60;99.90
43987;DHT22;29650;47.378;8.300;2023-04-15T04:30:36;5.50;99.90
43987;DHT22;29650;47.378;8.300;2023-04-15T04:33:03;5.60;99.90
43987;DHT22;29650;47.378;8.300;2023-04-15T04:35:32;5.60;99.90
43987;DHT22;29650;47.378;8.300;2023-04-15T04:38:02;5.60;99.90
43987;DHT22;29650;47.378;8.300;2023-04-15T04:40:29;5.60;99.90
43987;DHT22;29650;47.378;8.300;2023-04-15T04:42:56;5.60;99.90
43987;DHT22;29650;47.378;8.300;2023-04-15T04:45:23;5.70;99.90
43987;DHT22;29650;47.378;8.300;2023-04-15T04:47:50;5.70;99.90
43987;DHT22;29650;47.378;8.300;2023-04-15T04:50:17;5.60;99.90
43987;DHT22;29650;47.378;8.300;2023-04-15T04:52:45;5.50;99.90
43987;DHT22;29650;47.378;8.300;2023-04-15T04:55:12;5.60;99.90
43987;DHT22;29650;47.378;8.300;2023-04-15T04:57:39;5.60;99.90
43987;DHT22;29650;47.378;8.300;2023-04-15T05:00:07;5.70;99.90
43987;DHT22;29650;47.378;8.300;2023-04-15T05:02:34;5.70;99.90
43987;DHT22;29650;47.378;8.300;2023-04-15T05:05:01;5.70;99.90
43987;DHT22;29650;47.378;8.300;2023-04-15T05:07:28;6.10;99.90
43987;DHT22;29650;47.378;8.300;2023-04-15T05:09:57;5.90;99.90
43987;DHT22;29650;47.378;8.300;2023-04-15T05:12:24;6.00;99.90
43987;DHT22;29650;47.378;8.300;2023-04-15T05:14:51;6.10;99.90
43987;DHT22;29650;47.378;8.300;2023-04-15T05:17:18;6.10;99.90
43987;DHT22;29650;47.378;8.300;2023-04-15T05:19:45;6.10;99.90
43987;DHT22;29650;47.378;8.300;2023-04-15T05:22:12;6.00;99.90
43987;DHT22;29650;47.378;8.300;2023-04-15T05:24:39;6.00;99.90
43987;DHT22;29650;47.378;8.300;2023-04-15T05:27:07;6.10;99.90
43987;DHT22;29650;47.378;8.300;2023-04-15T05:29:36;6.10;99.90
43987;DHT22;29650;47.378;8.300;2023-04-15T05:32:03;6.20;99.90
43987;DHT22;29650;47.378;8.300;2023-04-15T05:34:30;6.30;99.90
43987;DHT22;29650;47.378;8.300;2023-04-15T05:36:57;6.40;99.90
43987;DHT22;29650;47.378;8.300;2023-04-15T05:39:24;6.30;99.90
43987;DHT22;29650;47.378;8.300;2023-04-15T05:41:51;6.40;99.90
43987;DHT22;29650;47.378;8.300;2023-04-15T05:44:19;6.40;99.90
43987;DHT22;29650;47.378;8.300;2023-04-15T05:46:46;6.30;99.90
43987;DHT22;29650;47.378;8.300;2023-04-15T05:49:13;6.30;99.90
43987;DHT22;29650;47.378;8.300;2023-04-15T05:51:40;6.20;99.90
43987;DHT22;29650;47.378;8.300;2023-04-15T05:54:07;6.10;99.90
43987;DHT22;29650;47.378;8.300;2023-04-15T05:56:34;6.10;99.90
43987;DHT22;29650;47.378;8.300;2023-04-15T05:59:01;6.00;99.90
43987;DHT22;29650;47.378;8.300;2023-04-15T06:01:30;6.10;99.90
43987;DHT22;29650;47.378;8.300;2023-04-15T06:03:57;6.00;99.90
43987;DHT22;29650;47.378;8.300;2023-04-15T06:06:23;6.10;99.90
43987;DHT22;29650;47.378;8.300;2023-04-15T06:08:51;6.10;99.90
43987;DHT22;29650;47.378;8.300;2023-04-15T06:11:20;6.20;99.90
43987;DHT22;29650;47.378;8.300;2023-04-15T06:13:47;6.20;99.90
43987;DHT22;29650;47.378;8.300;2023-04-15T06:16:14;6.40;99.90
43987;DHT22;29650;47.378;8.300;2023-04-15T06:18:43;6.40;99.90
43987;DHT22;29650;47.378;8.300;2023-04-15T06:21:10;6.40;99.90
43987;DHT22;29650;47.378;8.300;2023-04-15T06:23:37;6.60;99.90
43987;DHT22;29650;47.378;8.300;2023-04-15T06:26:05;6.70;99.90
43987;DHT22;29650;47.378;8.300;2023-04-15T06:28:33;6.80;99.90
43987;DHT22;29650;47.378;8.300;2023-04-15T06:31:00;6.80;99.90
43987;DHT22;29650;47.378;8.300;2023-04-15T06:33:27;6.80;99.90
43987;DHT22;29650;47.378;8.300;2023-04-15T06:35:55;6.90;99.90
43987;DHT22;29650;47.378;8.300;2023-04-15T06:38:22;6.90;99.90
43987;DHT22;29650;47.378;8.300;2023-04-15T06:40:49;6.90;99.90
43987;DHT22;29650;47.378;8.300;2023-04-15T06:43:16;6.80;99.90
43987;DHT22;29650;47.378;8.300;2023-04-15T06:45:44;7.00;99.90
43987;DHT22;29650;47.378;8.300;2023-04-15T06:48:11;6.90;98.20
43987;DHT22;29650;47.378;8.300;2023-04-15T06:50:38;7.00;99.90
43987;DHT22;29650;47.378;8.300;2023-04-15T06:53:07;7.10;99.90
43987;DHT22;29650;47.378;8.300;2023-04-15T06:55:34;7.30;99.90
43987;DHT22;29650;47.378;8.300;2023-04-15T06:58:01;7.30;99.90
43987;DHT22;29650;47.378;8.300;2023-04-15T07:00:28;7.50;99.90
43987;DHT22;29650;47.378;8.300;2023-04-15T07:02:55;7.70;99.90
43987;DHT22;29650;47.378;8.300;2023-04-15T07:05:22;7.70;99.90
43987;DHT22;29650;47.378;8.300;2023-04-15T07:07:49;7.70;99.90
43987;DHT22;29650;47.378;8.300;2023-04-15T07:10:19;7.60;99.90
43987;DHT22;29650;47.378;8.300;2023-04-15T07:12:47;7.70;99.90
43987;DHT22;29650;47.378;8.300;2023-04-15T07:15:15;7.60;99.90
43987;DHT22;29650;47.378;8.300;2023-04-15T07:17:42;7.70;99.90
43987;DHT22;29650;47.378;8.300;2023-04-15T07:20:10;7.60;99.90
43987;DHT22;29650;47.378;8.300;2023-04-15T07:22:37;7.60;99.90
43987;DHT22;29650;47.378;8.300;2023-04-15T07:25:05;7.80;99.90
43987;DHT22;29650;47.378;8.300;2023-04-15T07:27:33;7.80;99.90
43987;DHT22;29650;47.378;8.300;2023-04-15T07:30:01;8.00;99.90
43987;DHT22;29650;47.378;8.300;2023-04-15T07:32:27;7.80;99.90
43987;DHT22;29650;47.378;8.300;2023-04-15T07:34:54;7.90;99.90
43987;DHT22;29650;47.378;8.300;2023-04-15T07:37:22;8.00;99.90
43987;DHT22;29650;47.378;8.300;2023-04-15T07:39:49;8.00;99.90
43987;DHT22;29650;47.378;8.300;2023-04-15T07:42:17;8.00;99.90
43987;DHT22;29650;47.378;8.300;2023-04-15T07:44:45;8.00;99.90
43987;DHT22;29650;47.378;8.300;2023-04-15T07:47:12;8.00;99.90
43987;DHT22;29650;47.378;8.300;2023-04-15T07:49:40;8.10;99.90
43987;DHT22;29650;47.378;8.300;2023-04-15T07:52:07;8.20;99.90
43987;DHT22;29650;47.378;8.300;2023-04-15T07:54:34;8.40;99.90
43987;DHT22;29650;47.378;8.300;2023-04-15T07:57:01;8.40;99.60
43987;DHT22;29650;47.378;8.300;2023-04-15T07:59:29;8.50;97.70
43987;DHT22;29650;47.378;8.300;2023-04-15T08:01:59;8.70;96.20
43987;DHT22;29650;47.378;8.300;2023-04-15T08:04:26;8.70;96.60
43987;DHT22;29650;47.378;8.300;2023-04-15T08:06:53;8.80;97.20
43987;DHT22;29650;47.378;8.300;2023-04-15T08:09:20;8.80;96.90
43987;DHT22;29650;47.378;8.300;2023-04-15T08:11:48;8.90;99.60
43987;DHT22;29650;47.378;8.300;2023-04-15T08:14:15;8.90;99.90
43987;DHT22;29650;47.378;8.300;2023-04-15T08:16:42;9.00;99.90
43987;DHT22;29650;47.378;8.300;2023-04-15T08:19:10;9.10;99.90
43987;DHT22;29650;47.378;8.300;2023-04-15T08:21:37;9.20;99.90
43987;DHT22;29650;47.378;8.300;2023-04-15T08:24:05;9.10;99.90
43987;DHT22;29650;47.378;8.300;2023-04-15T08:26:32;9.20;99.90
43987;DHT22;29650;47.378;8.300;2023-04-15T08:28:59;9.20;99.90
43987;DHT22;29650;47.378;8.300;2023-04-15T08:31:28;9.20;99.90
43987;DHT22;29650;47.378;8.300;2023-04-15T08:33:56;9.10;99.90
43987;DHT22;29650;47.378;8.300;2023-04-15T08:36:25;9.30;99.90
43987;DHT22;29650;47.378;8.300;2023-04-15T08:38:53;9.30;99.90
43987;DHT22;29650;47.378;8.300;2023-04-15T08:41:21;9.50;99.90
43987;DHT22;29650;47.378;8.300;2023-04-15T08:43:52;9.50;99.90
43987;DHT22;29650;47.378;8.300;2023-04-15T08:46:20;9.50;99.90
43987;DHT22;29650;47.378;8.300;2023-04-15T08:48:48;9.50;99.90
43987;DHT22;29650;47.378;8.300;2023-04-15T08:51:16;9.60;99.90
43987;DHT22;29650;47.378;8.300;2023-04-15T08:53:45;9.90;99.90
43987;DHT22;29650;47.378;8.300;2023-04-15T08:56:14;9.70;99.40
43987;DHT22;29650;47.378;8.300;2023-04-15T08:58:43;9.90;99.90
43987;DHT22;29650;47.378;8.300;2023-04-15T09:01:11;9.70;98.80
43987;DHT22;29650;47.378;8.300;2023-04-15T09:03:38;9.90;99.90
43987;DHT22;29650;47.378;8.300;2023-04-15T09:06:05;10.00;99.90
43987;DHT22;29650;47.378;8.300;2023-04-15T09:08:33;9.70;99.90
43987;DHT22;29650;47.378;8.300;2023-04-15T09:11:02;9.60;99.90
43987;DHT22;29650;47.378;8.300;2023-04-15T09:13:29;9.60;99.90
43987;DHT22;29650;47.378;8.300;2023-04-15T09:15:56;9.80;99.90
43987;DHT22;29650;47.378;8.300;2023-04-15T09:18:27;9.80;99.90
43987;DHT22;29650;47.378;8.300;2023-04-15T09:20:55;9.60;99.90
43987;DHT22;29650;47.378;8.300;2023-04-15T09:23:22;9.50;99.90
43987;DHT22;29650;47.378;8.300;2023-04-15T09:25:50;9.70;99.90
43987;DHT22;29650;47.378;8.300;2023-04-15T09:28:24;9.60;99.90
43987;DHT22;29650;47.378;8.300;2023-04-15T09:30:55;9.20;99.90
43987;DHT22;29650;47.378;8.300;2023-04-15T09:33:22;9.40;99.90
43987;DHT22;29650;47.378;8.300;2023-04-15T09:35:58;9.30;99.90
43987;DHT22;29650;47.378;8.300;2023-04-15T09:38:25;9.40;99.20
43987;DHT22;29650;47.378;8.300;2023-04-15T09:40:52;9.60;99.90
43987;DHT22;29650;47.378;8.300;2023-04-15T09:43:19;9.70;99.90
43987;DHT22;29650;47.378;8.300;2023-04-15T09:45:50;9.70;99.80
43987;DHT22;29650;47.378;8.300;2023-04-15T09:48:19;9.40;95.80
43987;DHT22;29650;47.378;8.300;2023-04-15T09:50:46;9.80;97.90
43987;DHT22;29650;47.378;8.300;2023-04-15T09:53:19;9.90;97.30
43987;DHT22;29650;47.378;8.300;2023-04-15T09:55:49;9.90;97.90
43987;DHT22;29650;47.378;8.300;2023-04-15T09:58:20;10.20;99.90
43987;DHT22;29650;47.378;8.300;2023-04-15T10:00:49;10.30;99.90
43987;DHT22;29650;47.378;8.300;2023-04-15T10:03:18;10.20;99.90
43987;DHT22;29650;47.378;8.300;2023-04-15T10:05:48;10.30;99.70
43987;DHT22;29650;47.378;8.300;2023-04-15T10:08:17;10.40;98.10
43987;DHT22;29650;47.378;8.300;2023-04-15T10:10:44;10.30;97.70
43987;DHT22;29650;47.378;8.300;2023-04-15T10:13:13;10.20;96.20
43987;DHT22;29650;47.378;8.300;2023-04-15T10:15:43;10.00;97.10
43987;DHT22;29650;47.378;8.300;2023-04-15T10:18:15;10.00;97.80
43987;DHT22;29650;47.378;8.300;2023-04-15T10:20:43;10.20;97.60
43987;DHT22;29650;47.378;8.300;2023-04-15T10:23:11;10.30;98.40
43987;DHT22;29650;47.378;8.300;2023-04-15T10:25:38;10.30;99.90
43987;DHT22;29650;47.378;8.300;2023-04-15T10:28:06;10.30;99.90
43987;DHT22;29650;47.378;8.300;2023-04-15T10:30:33;10.20;99.90
43987;DHT22;29650;47.378;8.300;2023-04-15T10:33:00;10.10;99.90
43987;DHT22;29650;47.378;8.300;2023-04-15T10:35:31;10.10;99.90
43987;DHT22;29650;47.378;8.300;2023-04-15T10:37:59;9.90;99.90
43987;DHT22;29650;47.378;8.300;2023-04-15T10:40:27;9.80;99.90
43987;DHT22;29650;47.378;8.300;2023-04-15T10:42:57;9.90;99.90
43987;DHT22;29650;47.378;8.300;2023-04-15T10:45:26;9.90;99.90
43987;DHT22;29650;47.378;8.300;2023-04-15T10:47:57;10.00;99.90
43987;DHT22;29650;47.378;8.300;2023-04-15T10:50:25;9.90;99.90
43987;DHT22;29650;47.378;8.300;2023-04-15T10:52:55;9.90;99.90
43987;DHT22;29650;47.378;8.300;2023-04-15T10:55:23;9.90;99.90
43987;DHT22;29650;47.378;8.300;2023-04-15T10:57:52;9.90;99.90
43987;DHT22;29650;47.378;8.300;2023-04-15T11:00:21;9.90;99.90
43987;DHT22;29650;47.378;8.300;2023-04-15T11:02:52;9.90;99.90
43987;DHT22;29650;47.378;8.300;2023-04-15T11:05:47;10.00;99.90
43987;DHT22;29650;47.378;8.300;2023-04-15T11:08:12;10.10;99.90
43987;DHT22;29650;47.378;8.300;2023-04-15T11:10:50;10.10;99.90
43987;DHT22;29650;47.378;8.300;2023-04-15T11:13:25;10.10;99.90
43987;DHT22;29650;47.378;8.300;2023-04-15T11:15:59;10.10;99.90
43987;DHT22;29650;47.378;8.300;2023-04-15T11:18:32;10.10;99.30
43987;DHT22;29650;47.378;8.300;2023-04-15T11:21:01;9.90;99.90
43987;DHT22;29650;47.378;8.300;2023-04-15T11:23:36;10.00;99.90
43987;DHT22;29650;47.378;8.300;2023-04-15T11:26:04;9.60;99.90
43987;DHT22;29650;47.378;8.300;2023-04-15T11:28:34;9.80;99.90
43987;DHT22;29650;47.378;8.300;2023-04-15T11:31:09;9.60;99.90
43987;DHT22;29650;47.378;8.300;2023-04-15T11:33:43;9.70;99.90
43987;DHT22;29650;47.378;8.300;2023-04-15T11:36:11;9.80;99.90
43987;DHT22;29650;47.378;8.300;2023-04-15T11:38:43;9.90;99.90
43987;DHT22;29650;47.378;8.300;2023-04-15T11:41:10;10.00;99.90
43987;DHT22;29650;47.378;8.300;2023-04-15T11:43:37;10.10;99.90
43987;DHT22;29650;47.378;8.300;2023-04-15T11:46:04;9.60;99.90
43987;DHT22;29650;47.378;8.300;2023-04-15T11:48:34;9.80;99.90
43987;DHT22;29650;47.378;8.300;2023-04-15T11:51:02;9.90;99.90
43987;DHT22;29650;47.378;8.300;2023-04-15T11:53:37;9.90;99.90
43987;DHT22;29650;47.378;8.300;2023-04-15T11:56:07;10.00;99.90
43987;DHT22;29650;47.378;8.300;2023-04-15T11:58:35;10.20;99.90
43987;DHT22;29650;47.378;8.300;2023-04-15T12:01:04;10.30;99.90
43987;DHT22;29650;47.378;8.300;2023-04-15T12:03:36;10.30;99.90
43987;DHT22;29650;47.378;8.300;2023-04-15T12:06:09;10.30;99.90
43987;DHT22;29650;47.378;8.300;2023-04-15T12:08:57;10.40;99.90
43987;DHT22;29650;47.378;8.300;2023-04-15T12:14:17;10.20;99.00
43987;DHT22;29650;47.378;8.300;2023-04-15T12:16:45;10.30;99.30
43987;DHT22;29650;47.378;8.300;2023-04-15T12:19:15;10.40;99.90
43987;DHT22;29650;47.378;8.300;2023-04-15T12:21:44;10.60;99.90
43987;DHT22;29650;47.378;8.300;2023-04-15T12:24:11;10.70;99.90
43987;DHT22;29650;47.378;8.300;2023-04-15T12:26:44;10.80;99.90
43987;DHT22;29650;47.378;8.300;2023-04-15T12:29:13;10.80;99.90
43987;DHT22;29650;47.378;8.300;2023-04-15T12:31:48;10.90;99.90
43987;DHT22;29650;47.378;8.300;2023-04-15T12:34:16;11.00;99.60
43987;DHT22;29650;47.378;8.300;2023-04-15T12:36:44;11.00;99.90
43987;DHT22;29650;47.378;8.300;2023-04-15T12:39:12;10.70;98.90
43987;DHT22;29650;47.378;8.300;2023-04-15T12:41:39;10.90;99.40
43987;DHT22;29650;47.378;8.300;2023-04-15T12:44:09;10.90;99.80
43987;DHT22;29650;47.378;8.300;2023-04-15T12:46:36;11.00;99.20
43987;DHT22;29650;47.378;8.300;2023-04-15T12:49:03;11.10;99.40
43987;DHT22;29650;47.378;8.300;2023-04-15T12:51:30;10.80;99.90
43987;DHT22;29650;47.378;8.300;2023-04-15T12:53:57;11.10;99.90
43987;DHT22;29650;47.378;8.300;2023-04-15T12:56:24;10.80;98.60
43987;DHT22;29650;47.378;8.300;2023-04-15T12:58:51;10.90;98.10
43987;DHT22;29650;47.378;8.300;2023-04-15T13:01:19;10.50;97.50
43987;DHT22;29650;47.378;8.300;2023-04-15T13:03:46;10.60;98.80
43987;DHT22;29650;47.378;8.300;2023-04-15T13:06:15;10.70;96.70
43987;DHT22;29650;47.378;8.300;2023-04-15T13:08:42;10.70;98.10
43987;DHT22;29650;47.378;8.300;2023-04-15T13:11:09;10.40;98.30
43987;DHT22;29650;47.378;8.300;2023-04-15T13:13:36;10.40;99.20
43987;DHT22;29650;47.378;8.300;2023-04-15T13:16:03;10.80;99.90
43987;DHT22;29650;47.378;8.300;2023-04-15T13:18:32;10.80;99.90
43987;DHT22;29650;47.378;8.300;2023-04-15T13:20:59;10.80;99.90
43987;DHT22;29650;47.378;8.300;2023-04-15T13:23:27;10.80;99.90
43987;DHT22;29650;47.378;8.300;2023-04-15T13:25:54;10.90;99.70
43987;DHT22;29650;47.378;8.300;2023-04-15T13:28:21;10.90;98.20
43987;DHT22;29650;47.378;8.300;2023-04-15T13:30:48;10.80;98.70
43987;DHT22;29650;47.378;8.300;2023-04-15T13:33:16;10.70;99.40
43987;DHT22;29650;47.378;8.300;2023-04-15T13:35:44;10.60;99.50
43987;DHT22;29650;47.378;8.300;2023-04-15T13:38:11;10.50;99.00
43987;DHT22;29650;47.378;8.300;2023-04-15T13:40:38;10.10;98.10
43987;DHT22;29650;47.378;8.300;2023-04-15T13:43:05;10.40;98.50
43987;DHT22;29650;47.378;8.300;2023-04-15T13:45:32;10.60;99.00
43987;DHT22;29650;47.378;8.300;2023-04-15T13:47:59;10.70;99.50
43987;DHT22;29650;47.378;8.300;2023-04-15T13:50:27;10.70;99.10
43987;DHT22;29650;47.378;8.300;2023-04-15T13:52:55;10.70;97.20
43987;DHT22;29650;47.378;8.300;2023-04-15T13:55:22;10.60;95.40
43987;DHT22;29650;47.378;8.300;2023-04-15T13:57:49;10.80;96.00
43987;DHT22;29650;47.378;8.300;2023-04-15T14:00:16;10.70;95.40
43987;DHT22;29650;47.378;8.300;2023-04-15T14:02:43;10.80;94.70
43987;DHT22;29650;47.378;8.300;2023-04-15T14:05:10;10.80;94.20
43987;DHT22;29650;47.378;8.300;2023-04-15T14:07:37;10.80;92.80
43987;DHT22;29650;47.378;8.300;2023-04-15T14:10:07;11.00;92.50
43987;DHT22;29650;47.378;8.300;2023-04-15T14:12:34;10.80;90.90
43987;DHT22;29650;47.378;8.300;2023-04-15T14:15:01;10.90;90.40
43987;DHT22;29650;47.378;8.300;2023-04-15T14:17:28;11.00;90.80
43987;DHT22;29650;47.378;8.300;2023-04-15T14:19:55;11.10;90.60
43987;DHT22;29650;47.378;8.300;2023-04-15T14:22:22;11.10;90.80
43987;DHT22;29650;47.378;8.300;2023-04-15T14:24:49;11.20;91.20
43987;DHT22;29650;47.378;8.300;2023-04-15T14:27:19;11.40;91.80
43987;DHT22;29650;47.378;8.300;2023-04-15T14:29:46;11.40;91.90
43987;DHT22;29650;47.378;8.300;2023-04-15T14:32:13;11.40;92.70
43987;DHT22;29650;47.378;8.300;2023-04-15T14:34:40;11.50;92.20
43987;DHT22;29650;47.378;8.300;2023-04-15T14:37:07;11.50;92.10
43987;DHT22;29650;47.378;8.300;2023-04-15T14:39:34;11.40;92.20
43987;DHT22;29650;47.378;8.300;2023-04-15T14:42:01;11.20;92.20
43987;DHT22;29650;47.378;8.300;2023-04-15T14:44:29;11.20;92.50
43987;DHT22;29650;47.378;8.300;2023-04-15T14:46:56;11.10;92.20
43987;DHT22;29650;47.378;8.300;2023-04-15T14:49:23;10.30;93.70
43987;DHT22;29650;47.378;8.300;2023-04-15T14:51:50;10.20;95.40
43987;DHT22;29650;47.378;8.300;2023-04-15T14:54:17;9.90;96.10
43987;DHT22;29650;47.378;8.300;2023-04-15T14:56:44;9.90;97.30
43987;DHT22;29650;47.378;8.300;2023-04-15T14:59:11;9.70;98.10
43987;DHT22;29650;47.378;8.300;2023-04-15T15:01:39;9.70;99.50
43987;DHT22;29650;47.378;8.300;2023-04-15T15:04:06;9.90;99.90
43987;DHT22;29650;47.378;8.300;2023-04-15T15:06:33;9.80;99.90
43987;DHT22;29650;47.378;8.300;2023-04-15T15:09:00;9.70;99.90
43987;DHT22;29650;47.378;8.300;2023-04-15T15:11:27;9.80;99.90
43987;DHT22;29650;47.378;8.300;2023-04-15T15:13:55;9.60;99.90
43987;DHT22;29650;47.378;8.300;2023-04-15T15:16:23;9.80;99.90
43987;DHT22;29650;47.378;8.300;2023-04-15T15:18:52;9.90;99.90
43987;DHT22;29650;47.378;8.300;2023-04-15T15:21:19;9.80;99.90
43987;DHT22;29650;47.378;8.300;2023-04-15T15:23:46;9.80;99.90
43987;DHT22;29650;47.378;8.300;2023-04-15T15:26:13;9.80;99.90
43987;DHT22;29650;47.378;8.300;2023-04-15T15:28:40;9.80;99.90
43987;DHT22;29650;47.378;8.300;2023-04-15T15:31:07;9.70;99.90
43987;DHT22;29650;47.378;8.300;2023-04-15T15:33:34;9.80;99.90
43987;DHT22;29650;47.378;8.300;2023-04-15T15:36:03;9.80;99.90
43987;DHT22;29650;47.378;8.300;2023-04-15T15:38:30;9.80;99.90
43987;DHT22;29650;47.378;8.300;2023-04-15T15:40:57;10.10;99.90
43987;DHT22;29650;47.378;8.300;2023-04-15T15:43:24;9.80;99.90
43987;DHT22;29650;47.378;8.300;2023-04-15T15:45:51;10.00;99.90
43987;DHT22;29650;47.378;8.300;2023-04-15T15:48:20;9.90;99.90
43987;DHT22;29650;47.378;8.300;2023-04-15T15:50:47;10.00;99.90